createdAt,value
2019-04-05T00:01:11.849Z,48.30
2019-04-05T00:03:42.127Z,48.30
2019-04-05T00:06:12.327Z,48.30
2019-04-05T00:08:42.739Z,48.30
2019-04-05T00:11:12.981Z,48.40
2019-04-05T00:13:43.305Z,48.50
2019-04-05T00:16:13.624Z,48.60
2019-04-05T00:18:43.835Z,48.70
2019-04-05T00:21:14.043Z,48.70
2019-04-05T00:23:44.287Z,48.80
2019-04-05T00:26:14.492Z,48.70
2019-04-05T00:28:44.696Z,48.80
2019-04-05T00:31:14.930Z,48.80
2019-04-05T00:33:45.205Z,48.90
2019-04-05T00:36:15.469Z,48.90
2019-04-05T00:38:45.721Z,48.90
2019-04-05T00:41:17.468Z,48.90
2019-04-05T00:43:47.837Z,49.00
2019-04-05T00:46:18.098Z,49.20
2019-04-05T00:48:48.615Z,49.20
2019-04-05T00:51:18.858Z,49.40
2019-04-05T00:53:49.070Z,49.40
2019-04-05T00:56:19.263Z,49.50
2019-04-05T00:58:49.723Z,49.50
2019-04-05T01:01:19.916Z,49.60
2019-04-05T01:03:50.170Z,49.50
2019-04-05T01:06:20.361Z,49.70
2019-04-05T01:08:50.585Z,49.70
2019-04-05T01:11:20.814Z,49.70
2019-04-05T01:13:51.020Z,49.90
2019-04-05T01:16:21.250Z,50.00
2019-04-05T01:18:51.566Z,50.20
2019-04-05T01:21:24.665Z,50.30
2019-04-05T01:23:54.873Z,50.30
2019-04-05T01:26:25.101Z,50.30
2019-04-05T01:28:55.279Z,50.40
2019-04-05T01:31:25.541Z,50.50
2019-04-05T01:33:55.800Z,50.40
2019-04-05T01:36:26.263Z,50.50
2019-04-05T01:38:56.587Z,50.60
2019-04-05T01:41:26.932Z,50.50
2019-04-05T01:43:58.713Z,51.20
2019-04-05T01:46:28.936Z,50.60
2019-04-05T01:48:59.135Z,50.70
2019-04-05T01:51:29.368Z,50.70
2019-04-05T01:53:59.645Z,50.90
2019-04-05T01:56:29.844Z,50.90
2019-04-05T01:59:00.095Z,51.00
2019-04-05T02:01:30.306Z,51.10
2019-04-05T02:04:01.679Z,51.20
2019-04-05T02:06:31.953Z,51.20
2019-04-05T02:09:02.209Z,51.20
2019-04-05T02:11:32.872Z,51.30
2019-04-05T02:14:03.090Z,51.30
2019-04-05T02:16:33.310Z,51.50
2019-04-05T02:19:03.704Z,51.40
2019-04-05T02:21:33.929Z,51.30
2019-04-05T02:24:04.231Z,51.50
2019-04-05T02:26:34.460Z,51.50
2019-04-05T02:29:04.693Z,51.60
2019-04-05T02:31:34.897Z,51.60
2019-04-05T02:34:05.120Z,51.70
2019-04-05T02:36:35.427Z,51.70
2019-04-05T02:39:06.720Z,51.70
2019-04-05T02:41:37.152Z,51.60
2019-04-05T02:44:07.456Z,51.40
2019-04-05T02:46:37.677Z,51.20
2019-04-05T02:49:09.548Z,51.30
2019-04-05T02:51:39.768Z,51.30
2019-04-05T02:54:11.613Z,51.20
2019-04-05T02:56:41.820Z,51.20
2019-04-05T02:59:12.756Z,51.20
2019-04-05T03:01:43.020Z,51.20
2019-04-05T03:04:13.257Z,51.20
2019-04-05T03:06:43.480Z,51.10
2019-04-05T03:09:13.761Z,51.10
2019-04-05T03:11:43.963Z,51.00
2019-04-05T03:14:14.517Z,50.80
2019-04-05T03:16:45.561Z,50.70
2019-04-05T03:19:17.747Z,50.70
2019-04-05T03:21:51.001Z,50.70
2019-04-05T03:24:23.096Z,50.70
2019-04-05T03:26:56.446Z,50.80
2019-04-05T03:29:28.453Z,50.80
2019-04-05T03:31:58.684Z,50.70
2019-04-05T03:34:28.946Z,50.70
2019-04-05T03:36:59.935Z,50.70
2019-04-05T03:39:30.127Z,50.80
2019-04-05T03:42:00.542Z,50.70
2019-04-05T03:44:32.394Z,50.70
2019-04-05T03:47:02.816Z,50.80
2019-04-05T03:49:33.006Z,51.00
2019-04-05T03:52:04.553Z,51.10
2019-04-05T03:54:35.068Z,51.20
2019-04-05T03:57:05.265Z,51.20
2019-04-05T03:59:35.588Z,51.20
2019-04-05T04:02:05.787Z,51.20
2019-04-05T04:04:37.854Z,51.30
2019-04-05T04:07:09.630Z,51.30
2019-04-05T04:09:39.885Z,51.40
2019-04-05T04:12:10.078Z,51.60
2019-04-05T04:14:40.343Z,51.60
2019-04-05T04:17:12.635Z,51.60
2019-04-05T04:19:42.576Z,51.60
2019-04-05T04:22:16.055Z,51.80
2019-04-05T04:24:46.461Z,51.80
2019-04-05T04:27:16.703Z,51.70
2019-04-05T04:29:47.208Z,51.70
2019-04-05T04:32:17.552Z,51.70
2019-04-05T04:34:48.057Z,51.70
2019-04-05T04:37:18.333Z,51.70
2019-04-05T04:39:48.711Z,51.70
2019-04-05T04:42:20.601Z,51.70
2019-04-05T04:44:50.874Z,51.50
2019-04-05T04:47:27.015Z,52.00
2019-04-05T04:49:53.498Z,51.30
2019-04-05T04:52:23.696Z,51.00
2019-04-05T04:54:54.044Z,51.00
2019-04-05T04:57:24.324Z,50.90
2019-04-05T04:59:54.788Z,50.90
2019-04-05T05:02:25.035Z,50.60
2019-04-05T05:04:55.290Z,50.40
2019-04-05T05:07:25.605Z,50.20
2019-04-05T05:09:57.470Z,49.90
2019-04-05T05:12:27.705Z,49.80
2019-04-05T05:14:59.483Z,49.60
2019-04-05T05:17:38.290Z,49.20
2019-04-05T05:20:01.778Z,49.20
2019-04-05T05:22:32.002Z,48.90
2019-04-05T05:25:02.239Z,48.50
2019-04-05T05:27:32.478Z,48.20
2019-04-05T05:30:02.800Z,47.90
2019-04-05T05:32:33.108Z,47.60
2019-04-05T05:35:03.678Z,47.40
2019-04-05T05:37:35.560Z,47.10
2019-04-05T05:40:08.198Z,46.50
2019-04-05T05:42:38.543Z,45.80
2019-04-05T05:45:08.756Z,45.30
2019-04-05T05:47:51.273Z,44.80
2019-04-05T05:50:10.916Z,44.80
2019-04-05T05:52:43.546Z,44.60
2019-04-05T05:55:13.742Z,44.40
2019-04-05T05:57:45.543Z,44.00
2019-04-05T06:00:17.277Z,43.30
2019-04-05T06:02:48.591Z,43.30
2019-04-05T06:05:19.122Z,42.80
2019-04-05T06:07:49.475Z,42.70
2019-04-05T06:10:19.818Z,41.80
2019-04-05T06:12:50.345Z,41.20
2019-04-05T06:15:20.549Z,40.20
2019-04-05T06:18:04.111Z,37.70
2019-04-05T06:20:24.282Z,37.10
2019-04-05T06:22:54.662Z,36.30
2019-04-05T06:25:24.971Z,34.80
2019-04-05T06:27:55.254Z,33.60
2019-04-05T06:30:28.619Z,32.50
2019-04-05T06:32:57.477Z,30.80
2019-04-05T06:35:27.757Z,30.50
2019-04-05T06:37:58.046Z,29.00
2019-04-05T06:40:40.068Z,28.60
2019-04-05T06:43:00.327Z,28.40
2019-04-05T06:45:30.599Z,28.00
2019-04-05T06:48:00.835Z,26.40
2019-04-05T06:50:31.927Z,25.10
2019-04-05T06:53:02.189Z,24.50
2019-04-05T06:55:34.027Z,23.90
2019-04-05T06:58:05.826Z,23.70
2019-04-05T07:00:36.041Z,23.40
2019-04-05T07:03:06.339Z,23.10
2019-04-05T07:05:36.587Z,23.10
2019-04-05T07:08:06.941Z,22.50
2019-04-05T07:10:37.135Z,22.20
2019-04-05T07:13:07.405Z,21.80
2019-04-05T07:15:37.847Z,21.40
2019-04-05T07:18:08.072Z,21.20
2019-04-05T07:20:39.843Z,21.00
2019-04-05T07:23:11.719Z,21.40
2019-04-05T07:25:41.919Z,21.40
2019-04-05T07:28:12.232Z,21.30
2019-04-05T07:30:42.437Z,21.00
2019-04-05T07:33:12.782Z,20.60
2019-04-05T07:35:43.071Z,19.90
2019-04-05T07:38:13.259Z,19.70
2019-04-05T07:40:43.495Z,19.70
2019-04-05T07:43:13.694Z,19.50
2019-04-05T07:45:45.982Z,19.80
2019-04-05T07:48:15.872Z,19.10
2019-04-05T07:50:46.224Z,19.20
2019-04-05T07:53:16.588Z,19.30
2019-04-05T07:55:46.953Z,19.70
2019-04-05T07:58:18.002Z,20.40
2019-04-05T08:00:53.897Z,20.70
2019-04-05T08:03:24.501Z,20.50
2019-04-05T08:05:54.865Z,20.30
2019-04-05T08:08:34.505Z,20.20
2019-04-05T08:11:07.180Z,20.10
2019-04-05T08:13:38.425Z,20.40
2019-04-05T08:16:10.240Z,21.00
2019-04-05T08:18:40.426Z,22.40
2019-04-05T08:21:10.639Z,22.10
2019-04-05T08:23:40.901Z,22.10
2019-04-05T08:26:11.219Z,20.90
2019-04-05T08:28:41.513Z,19.70
2019-04-05T08:31:14.422Z,18.50
2019-04-05T08:33:43.687Z,17.70
2019-04-05T08:36:14.191Z,17.80
2019-04-05T08:38:44.382Z,17.90
2019-04-05T08:41:14.809Z,20.10
2019-04-05T08:43:47.187Z,21.70
2019-04-05T08:46:18.712Z,23.10
2019-04-05T08:48:48.977Z,24.60
2019-04-05T08:51:19.222Z,25.90
2019-04-05T08:53:49.412Z,26.00
2019-04-05T08:56:19.639Z,26.10
2019-04-05T08:58:49.851Z,24.70
2019-04-05T09:01:20.225Z,23.80
2019-04-05T09:03:50.507Z,25.00
2019-04-05T09:06:22.357Z,26.70
2019-04-05T09:08:52.678Z,27.00
2019-04-05T09:11:24.594Z,27.70
2019-04-05T09:13:54.781Z,28.40
2019-04-05T09:16:25.122Z,28.80
2019-04-05T09:18:55.301Z,29.00
2019-04-05T09:21:25.580Z,29.30
2019-04-05T09:23:59.219Z,29.60
2019-04-05T09:26:29.300Z,29.10
2019-04-05T09:28:59.565Z,28.60
2019-04-05T09:31:29.789Z,28.90
2019-04-05T09:34:00.248Z,29.20
2019-04-05T09:36:32.006Z,29.40
2019-04-05T09:39:02.243Z,29.70
2019-04-05T09:41:32.425Z,30.10
2019-04-05T09:44:02.643Z,30.00
2019-04-05T09:46:45.673Z,30.00
2019-04-05T09:49:05.592Z,29.70
2019-04-05T09:51:35.942Z,29.10
2019-04-05T09:54:06.121Z,28.90
2019-04-05T09:56:36.339Z,29.20
2019-04-05T09:59:08.140Z,29.10
2019-04-05T10:01:38.397Z,29.30
2019-04-05T10:04:08.650Z,29.40
2019-04-05T10:06:38.878Z,29.80
2019-04-05T10:09:09.258Z,30.00
2019-04-05T10:11:39.556Z,30.10
2019-04-05T10:14:09.825Z,30.10
2019-04-05T10:16:40.055Z,30.10
2019-04-05T10:19:10.276Z,29.80
2019-04-05T10:21:40.493Z,30.40
2019-04-05T10:24:10.689Z,31.10
2019-04-05T10:26:40.975Z,31.60
2019-04-05T10:29:11.255Z,31.60
2019-04-05T10:31:41.596Z,32.00
2019-04-05T10:34:11.833Z,32.30
2019-04-05T10:36:42.113Z,32.20
2019-04-05T10:39:12.354Z,32.30
2019-04-05T10:41:42.645Z,32.50
2019-04-05T10:44:14.518Z,31.30
2019-04-05T10:46:44.842Z,31.00
2019-04-05T10:49:16.869Z,30.90
2019-04-05T10:51:48.895Z,30.60
2019-04-05T10:54:19.147Z,31.00
2019-04-05T10:56:49.371Z,31.00
2019-04-05T10:59:19.585Z,31.40
2019-04-05T11:01:49.823Z,31.80
2019-04-05T11:04:20.079Z,32.40
2019-04-05T11:06:50.403Z,32.70
2019-04-05T11:09:20.819Z,32.60
2019-04-05T11:11:51.063Z,32.80
2019-04-05T11:14:22.916Z,32.50
2019-04-05T11:16:58.777Z,31.40
2019-04-05T11:19:26.686Z,31.00
2019-04-05T11:21:56.944Z,30.80
2019-04-05T11:24:27.177Z,30.40
2019-04-05T11:26:57.459Z,30.40
2019-04-05T11:29:27.702Z,30.90
2019-04-05T11:31:59.497Z,31.20
2019-04-05T11:34:29.711Z,30.60
2019-04-05T11:37:02.666Z,30.50
2019-04-05T11:39:31.961Z,30.30
2019-04-05T11:42:02.304Z,30.30
2019-04-05T11:44:33.100Z,30.30
2019-04-05T11:47:03.758Z,30.10
2019-04-05T11:49:34.515Z,30.00
2019-04-05T11:52:05.667Z,29.80
2019-04-05T11:54:35.945Z,29.60
2019-04-05T11:57:06.289Z,29.50
2019-04-05T11:59:36.504Z,29.70
2019-04-05T12:02:08.293Z,29.90
2019-04-05T12:04:38.697Z,30.10
2019-04-05T12:07:08.961Z,30.20
2019-04-05T12:09:39.148Z,30.60
2019-04-05T12:12:09.465Z,30.70
2019-04-05T12:14:39.698Z,30.40
2019-04-05T12:17:09.925Z,30.50
2019-04-05T12:19:40.183Z,30.70
2019-04-05T12:22:10.669Z,30.90
2019-04-05T12:24:40.933Z,30.90
2019-04-05T12:27:11.185Z,30.80
2019-04-05T12:29:41.545Z,31.10
2019-04-05T12:32:13.267Z,30.80
2019-04-05T12:34:45.323Z,31.30
2019-04-05T12:37:15.863Z,31.00
2019-04-05T12:39:46.209Z,31.20
2019-04-05T12:42:18.043Z,31.60
2019-04-05T12:44:48.450Z,31.80
2019-04-05T12:47:18.649Z,32.00
2019-04-05T12:49:48.907Z,31.50
2019-04-05T12:52:22.960Z,31.50
2019-04-05T12:54:54.820Z,31.60
2019-04-05T12:57:25.732Z,31.60
2019-04-05T12:59:58.789Z,32.10
2019-04-05T13:02:33.876Z,32.50
2019-04-05T13:05:03.318Z,32.50
2019-04-05T13:07:35.183Z,32.50
2019-04-05T13:10:07.307Z,32.50
2019-04-05T13:12:37.557Z,32.70
2019-04-05T13:15:13.731Z,32.90
2019-04-05T13:17:39.828Z,32.90
2019-04-05T13:20:10.149Z,32.90
2019-04-05T13:22:40.345Z,33.00
2019-04-05T13:25:11.461Z,33.10
2019-04-05T13:27:42.209Z,32.90
2019-04-05T13:30:12.495Z,33.10
2019-04-05T13:32:42.780Z,33.50
2019-04-05T13:35:16.543Z,33.40
2019-04-05T13:37:45.723Z,33.90
2019-04-05T13:40:16.188Z,34.80
2019-04-05T13:42:46.427Z,35.20
2019-04-05T13:45:16.742Z,35.90
2019-04-05T13:47:47.920Z,36.80
2019-04-05T13:50:19.693Z,36.80
2019-04-05T13:52:49.994Z,37.00
2019-04-05T13:55:20.237Z,37.10
2019-04-05T13:57:50.851Z,36.80
2019-04-05T14:00:21.329Z,36.80
2019-04-05T14:02:51.570Z,36.60
2019-04-05T14:05:22.701Z,37.20
2019-04-05T14:08:09.165Z,38.20
2019-04-05T14:10:25.085Z,39.30
2019-04-05T14:12:55.276Z,40.60
2019-04-05T14:15:25.505Z,41.80
2019-04-05T14:17:55.752Z,43.80
2019-04-05T14:20:26.388Z,44.60
2019-04-05T14:22:56.619Z,45.70
2019-04-05T14:25:29.959Z,46.70
2019-04-05T14:27:58.846Z,47.90
2019-04-05T14:30:32.446Z,48.40
2019-04-05T14:33:01.273Z,48.70
2019-04-05T14:35:31.451Z,48.70
2019-04-05T14:38:01.669Z,49.50
2019-04-05T14:40:33.146Z,50.40
2019-04-05T14:43:03.657Z,51.20
2019-04-05T14:45:35.960Z,51.70
2019-04-05T14:48:06.349Z,51.90
2019-04-05T14:50:36.644Z,52.10
2019-04-05T14:53:06.970Z,52.50
2019-04-05T14:55:37.283Z,52.80
2019-04-05T14:58:10.332Z,53.00
2019-04-05T15:00:39.473Z,52.90
2019-04-05T15:03:09.796Z,52.70
2019-04-05T15:05:40.163Z,52.60
2019-04-05T15:08:10.400Z,52.70
2019-04-05T15:10:40.707Z,52.70
2019-04-05T15:13:10.933Z,53.00
2019-04-05T15:15:41.174Z,53.60
2019-04-05T15:18:12.956Z,54.20
2019-04-05T15:20:43.248Z,54.40
2019-04-05T15:23:14.161Z,54.10
2019-04-05T15:25:44.988Z,54.20
2019-04-05T15:28:17.671Z,54.40
2019-04-05T15:30:49.458Z,54.30
2019-04-05T15:33:19.818Z,54.30
2019-04-05T15:35:50.007Z,54.40
2019-04-05T15:38:20.509Z,54.10
2019-04-05T15:40:50.819Z,54.20
2019-04-05T15:43:21.011Z,54.50
2019-04-05T15:45:51.269Z,55.20
2019-04-05T15:48:22.790Z,55.30
2019-04-05T15:50:57.688Z,56.10
2019-04-05T15:53:31.506Z,56.00
2019-04-05T15:56:04.028Z,56.70
2019-04-05T15:58:34.066Z,57.20
2019-04-05T16:01:06.398Z,57.50
2019-04-05T16:03:37.052Z,58.00
2019-04-05T16:06:07.350Z,58.10
2019-04-05T16:08:39.385Z,58.30
2019-04-05T16:11:09.593Z,58.70
2019-04-05T16:13:39.921Z,59.30
2019-04-05T16:16:11.488Z,59.80
2019-04-05T16:18:41.690Z,60.50
2019-04-05T16:21:13.538Z,60.60
2019-04-05T16:23:43.765Z,60.10
2019-04-05T16:26:15.537Z,60.70
2019-04-05T16:28:45.763Z,60.90
2019-04-05T16:31:17.513Z,61.00
2019-04-05T16:33:47.838Z,61.10
2019-04-05T16:36:18.034Z,61.70
2019-04-05T16:38:48.259Z,60.90
2019-04-05T16:41:18.467Z,61.20
2019-04-05T16:43:48.694Z,61.40
2019-04-05T16:46:18.915Z,61.30
2019-04-05T16:48:49.388Z,61.70
2019-04-05T16:51:19.622Z,61.80
2019-04-05T16:54:00.484Z,61.60
2019-04-05T16:56:30.764Z,62.20
2019-04-05T16:59:01.050Z,62.80
2019-04-05T17:01:31.234Z,63.10
2019-04-05T17:04:01.480Z,63.40
2019-04-05T17:06:33.329Z,64.00
2019-04-05T17:09:05.164Z,64.30
2019-04-05T17:11:35.405Z,64.90
2019-04-05T17:14:05.612Z,65.20
2019-04-05T17:16:35.844Z,65.60
2019-04-05T17:19:06.057Z,66.10
2019-04-05T17:21:38.026Z,66.40
2019-04-05T17:24:08.282Z,66.40
2019-04-05T17:26:38.521Z,66.80
2019-04-05T17:29:08.805Z,67.20
2019-04-05T17:31:39.064Z,67.60
2019-04-05T17:34:09.364Z,67.60
2019-04-05T17:36:39.643Z,67.90
2019-04-05T17:39:09.959Z,68.30
2019-04-05T17:41:40.224Z,68.20
2019-04-05T17:44:10.476Z,67.90
2019-04-05T17:46:42.421Z,68.10
2019-04-05T17:49:12.645Z,67.90
2019-04-05T17:51:42.853Z,68.20
2019-04-05T17:54:13.096Z,68.10
2019-04-05T17:56:43.302Z,68.30
2019-04-05T17:59:13.529Z,68.00
2019-04-05T18:01:43.918Z,68.30
2019-04-05T18:04:14.169Z,68.10
2019-04-05T18:06:44.401Z,68.00
2019-04-05T18:09:14.622Z,68.10
2019-04-05T18:11:44.835Z,68.10
2019-04-05T18:14:15.087Z,68.30
2019-04-05T18:16:45.368Z,68.40
2019-04-05T18:19:15.587Z,68.50
2019-04-05T18:21:45.846Z,68.30
2019-04-05T18:24:16.385Z,68.10
2019-04-05T18:26:46.682Z,68.30
2019-04-05T18:29:17.020Z,67.40
2019-04-05T18:31:47.226Z,67.80
2019-04-05T18:34:17.516Z,68.40
2019-04-05T18:36:48.440Z,68.70
2019-04-05T18:39:18.681Z,68.70
2019-04-05T18:41:48.907Z,68.70
2019-04-05T18:44:19.303Z,68.70
2019-04-05T18:46:49.570Z,68.70
2019-04-05T18:49:19.832Z,68.50
2019-04-05T18:51:50.065Z,68.10
2019-04-05T18:54:20.253Z,68.10
2019-04-05T18:56:50.490Z,68.10
2019-04-05T18:59:20.883Z,68.00
2019-04-05T19:01:51.083Z,68.10
2019-04-05T19:04:21.430Z,68.20
2019-04-05T19:06:51.762Z,67.80
2019-04-05T19:09:23.540Z,68.10
2019-04-05T19:11:53.761Z,68.20
2019-04-05T19:14:24.083Z,67.90
2019-04-05T19:16:55.862Z,68.10
2019-04-05T19:19:26.057Z,68.20
2019-04-05T19:21:56.425Z,68.30
2019-04-05T19:24:26.646Z,68.50
2019-04-05T19:26:57.022Z,68.30
2019-04-05T19:29:28.369Z,68.30
2019-04-05T19:49:47.541Z,68.20
2019-04-05T19:52:19.368Z,68.40
2019-04-05T19:54:49.924Z,68.20
2019-04-05T19:57:20.169Z,68.20
2019-04-05T19:59:52.896Z,69.10
2019-04-05T20:02:23.196Z,68.40
2019-04-05T20:04:53.393Z,68.30
2019-04-05T20:07:23.614Z,68.40
2019-04-05T20:09:53.848Z,68.40
2019-04-05T20:12:24.050Z,68.50
2019-04-05T20:14:54.298Z,68.30
2019-04-05T20:17:24.697Z,68.30
2019-04-05T20:19:55.833Z,68.80
2019-04-05T20:22:26.145Z,68.10
2019-04-05T20:24:56.340Z,68.20
2019-04-05T20:27:26.561Z,68.20
2019-04-05T20:29:56.854Z,68.20
2019-04-05T20:32:27.064Z,68.10
2019-04-05T20:34:57.288Z,68.10
2019-04-05T20:37:27.538Z,68.10
2019-04-05T20:39:57.815Z,68.40
2019-04-05T20:42:28.199Z,68.40
2019-04-05T20:44:58.462Z,68.50
2019-04-05T20:47:28.758Z,68.60
2019-04-05T20:49:58.962Z,68.80
2019-04-05T20:52:29.223Z,68.60
2019-04-05T20:55:00.637Z,68.80
2019-04-05T20:57:30.890Z,68.90
2019-04-05T21:00:01.092Z,68.90
2019-04-05T21:02:31.312Z,69.80
2019-04-05T21:05:01.564Z,69.40
2019-04-05T21:07:31.826Z,69.70
2019-04-05T21:10:02.313Z,70.00
2019-04-05T21:12:32.578Z,70.30
2019-04-05T21:15:02.854Z,70.50
2019-04-05T21:17:33.073Z,70.60
2019-04-05T21:20:03.272Z,70.70
2019-04-05T21:22:33.815Z,70.80
2019-04-05T21:25:05.618Z,71.00
2019-04-05T21:27:37.411Z,70.90
2019-04-05T21:30:08.078Z,71.20
2019-04-05T21:32:38.695Z,71.60
2019-04-05T21:35:08.893Z,71.80
2019-04-05T21:37:39.444Z,72.30
2019-04-05T21:40:09.946Z,72.60
2019-04-05T21:42:40.150Z,73.20
2019-04-05T21:45:10.422Z,73.30
2019-04-05T21:47:40.636Z,73.10
2019-04-05T21:50:10.853Z,73.10
2019-04-05T21:52:41.066Z,72.60
2019-04-05T21:55:11.290Z,71.90
2019-04-05T21:57:41.601Z,71.20
2019-04-05T22:00:14.980Z,71.30
2019-04-05T22:02:45.225Z,71.10
2019-04-05T22:05:15.422Z,70.60
2019-04-05T22:07:45.657Z,70.60
2019-04-05T22:10:16.073Z,70.30
2019-04-05T22:12:47.858Z,70.30
2019-04-05T22:15:19.661Z,70.30
2019-04-05T22:17:49.877Z,70.10
2019-04-05T22:20:20.597Z,70.00
2019-04-05T22:22:52.581Z,69.70
2019-04-05T22:25:22.833Z,69.60
2019-04-05T22:27:53.079Z,69.60
2019-04-05T22:30:23.347Z,69.90
2019-04-05T22:32:53.546Z,69.60
2019-04-05T22:35:23.873Z,70.50
2019-04-05T22:37:55.643Z,70.80
2019-04-05T22:40:25.893Z,70.00
2019-04-05T22:42:57.742Z,70.60
2019-04-05T22:45:27.974Z,70.00
2019-04-05T22:47:58.173Z,69.90
2019-04-05T22:50:28.667Z,69.60
2019-04-05T22:52:58.912Z,68.60
2019-04-05T22:55:29.106Z,68.20
2019-04-05T22:57:59.312Z,68.30
2019-04-05T23:00:29.543Z,67.90
2019-04-05T23:03:01.397Z,67.50
2019-04-05T23:05:31.694Z,67.50
2019-04-05T23:08:01.967Z,67.30
2019-04-05T23:10:32.291Z,67.40
2019-04-05T23:13:02.509Z,67.20
2019-04-05T23:15:32.779Z,66.90
2019-04-05T23:18:04.684Z,67.70
2019-04-05T23:20:34.915Z,68.30
2019-04-05T23:23:05.137Z,68.90
2019-04-05T23:25:35.322Z,68.80
2019-04-05T23:28:05.508Z,68.70
2019-04-05T23:30:35.754Z,68.80
2019-04-05T23:33:06.117Z,69.10
2019-04-05T23:35:36.318Z,69.40
2019-04-05T23:38:06.577Z,69.40
2019-04-05T23:40:37.607Z,69.60
2019-04-05T23:43:07.930Z,69.50
2019-04-05T23:45:38.227Z,69.80
2019-04-05T23:48:08.491Z,69.70
2019-04-05T23:50:38.706Z,69.70
2019-04-05T23:53:08.944Z,70.00
2019-04-05T23:55:39.148Z,70.20
2019-04-05T23:58:09.350Z,70.40
